Time;durP1;ratioP1;P1;durP2;ratioP2;P2;SDS_P1;SDS_P2;PMS_P1;PMS_P2;Temp;Humidity;BMP_temperature;BMP_pressure;BME280_temperature;BME280_humidity;BME280_pressure;Samples;Min_cycle;Max_cycle;Signal;HPM_P1;HPM_P2
2023/09/28 00:02:02;;;;;;;9.30;3.00;;;;;;;20.37;100.00;101224.47;5297693;28;20032;-68
2023/09/28 00:04:33;;;;;;;4.77;3.23;;;;;;;20.37;100.00;101235.91;5296863;28;20071;-68
2023/09/28 00:07:04;;;;;;;4.67;2.70;;;;;;;20.39;100.00;101236.63;5291318;28;20380;-68
2023/09/28 00:09:36;;;;;;;4.60;3.27;;;;;;;20.31;100.00;101232.03;5290220;28;20040;-68
2023/09/28 00:12:07;;;;;;;6.37;3.27;;;;;;;20.69;100.00;101233.78;5298098;28;20077;-67
2023/09/28 00:14:38;;;;;;;5.67;3.67;;;;;;;20.20;100.00;101234.88;5297980;28;20016;-67
2023/09/28 00:17:10;;;;;;;5.37;3.03;;;;;;;20.58;100.00;101231.34;5311830;28;20076;-68
2023/09/28 00:19:41;;;;;;;6.73;3.53;;;;;;;20.36;100.00;101233.41;5293010;28;20031;-68
2023/09/28 00:22:13;;;;;;;4.60;2.83;;;;;;;20.47;100.00;101235.03;5297552;28;20479;-68
2023/09/28 00:24:44;;;;;;;6.17;2.80;;;;;;;20.55;100.00;101243.97;5297375;28;20028;-67
2023/09/28 00:27:16;;;;;;;6.33;3.40;;;;;;;20.30;100.00;101240.13;5311461;28;20028;-68
2023/09/28 00:29:47;;;;;;;5.73;2.63;;;;;;;20.42;100.00;101252.28;5308917;28;20020;-69
2023/09/28 00:32:18;;;;;;;4.50;2.93;;;;;;;20.25;100.00;101253.88;5298208;28;20034;-68
2023/09/28 00:34:50;;;;;;;5.03;2.87;;;;;;;20.21;100.00;101255.19;5295816;28;20028;-68
2023/09/28 00:37:21;;;;;;;4.23;3.00;;;;;;;20.40;100.00;101256.91;5297787;28;20463;-68
2023/09/28 00:39:55;;;;;;;6.83;3.23;;;;;;;20.36;100.00;101249.38;5286258;28;20042;-68
2023/09/28 00:42:29;;;;;;;4.93;2.92;;;;;;;20.38;100.00;101258.88;5292526;28;20024;-68
2023/09/28 00:45:00;;;;;;;;;;;;;;;20.83;100.00;101260.88;5297484;28;20032;-67
2023/09/28 00:47:33;;;;;;;7.70;2.73;;;;;;;20.39;100.00;101270.34;5296681;28;19923;-68
2023/09/28 00:50:14;;;;;;;5.83;2.53;;;;;;;20.42;100.00;101275.41;5305602;28;20053;-68
2023/09/28 00:52:59;;;;;;;4.47;2.60;;;;;;;20.37;100.00;101267.84;5303254;28;20031;-68
2023/09/28 00:55:30;;;;;;;4.50;3.15;;;;;;;20.22;100.00;101270.13;5318356;28;20482;-68
2023/09/28 00:58:05;;;;;;;5.20;2.70;;;;;;;20.28;100.00;101258.09;5265817;28;20067;-68
2023/09/28 01:00:38;;;;;;;;;;;;;;;20.73;100.00;101261.78;5257893;28;20471;-68
2023/09/28 01:03:11;;;;;;;6.87;2.97;;;;;;;20.30;100.00;101256.09;5274869;28;19916;-68
2023/09/28 01:05:43;;;;;;;7.93;3.00;;;;;;;20.06;100.00;101255.63;5286761;28;20047;-68
2023/09/28 01:08:18;;;;;;;5.73;2.90;;;;;;;19.93;100.00;101252.44;5281515;28;20020;-68
2023/09/28 01:10:49;;;;;;;4.20;3.00;;;;;;;20.04;100.00;101252.28;5282744;28;20055;-68
2023/09/28 01:13:23;;;;;;;6.53;4.07;;;;;;;20.04;100.00;101268.22;5274917;28;20067;-68
2023/09/28 01:15:55;;;;;;;4.35;2.95;;;;;;;19.88;100.00;101262.66;5287182;28;20340;-68
2023/09/28 01:18:26;;;;;;;6.20;3.00;;;;;;;20.02;100.00;101270.16;5259909;28;20027;-67
2023/09/28 01:20:58;;;;;;;6.37;3.10;;;;;;;19.89;100.00;101265.19;5267755;28;20040;-68
2023/09/28 01:23:29;;;;;;;6.20;3.70;;;;;;;19.72;100.00;101264.09;5247198;28;20063;-67
2023/09/28 01:26:01;;;;;;;6.10;3.27;;;;;;;19.70;100.00;101266.06;5264835;28;20051;-68
2023/09/28 01:28:34;;;;;;;4.87;2.80;;;;;;;19.67;100.00;101276.97;5272514;28;20035;-68
2023/09/28 01:31:05;;;;;;;5.60;3.07;;;;;;;19.66;100.00;101264.66;5274979;28;20028;-68
2023/09/28 01:33:37;;;;;;;3.50;2.93;;;;;;;19.57;100.00;101269.84;5275427;28;20021;-68
2023/09/28 01:36:09;;;;;;;7.63;3.03;;;;;;;19.53;100.00;101271.09;5273925;28;20021;-67
2023/09/28 01:38:49;;;;;;;6.07;3.30;;;;;;;19.63;100.00;101264.94;5277217;28;20036;-67
2023/09/28 01:41:20;;;;;;;4.57;3.37;;;;;;;19.63;100.00;101259.63;5286014;28;20033;-68
2023/09/28 01:43:51;;;;;;;5.53;3.70;;;;;;;19.73;100.00;101267.56;5256567;28;20070;-68
2023/09/28 01:46:23;;;;;;;4.20;2.83;;;;;;;19.59;100.00;101262.56;5264288;28;20363;-68
2023/09/28 01:48:54;;;;;;;8.27;3.43;;;;;;;19.57;100.00;101279.63;5274205;28;20024;-68
2023/09/28 01:51:26;;;;;;;6.47;2.87;;;;;;;19.68;100.00;101286.59;5273623;28;20024;-68
2023/09/28 01:53:58;;;;;;;8.70;3.87;;;;;;;19.45;100.00;101289.53;5272814;28;20071;-68
2023/09/28 01:56:30;;;;;;;4.40;3.27;;;;;;;19.66;100.00;101285.91;5270205;28;20052;-68
2023/09/28 01:59:01;;;;;;;6.63;3.10;;;;;;;19.51;100.00;101286.34;5292400;28;20044;-68
2023/09/28 02:01:32;;;;;;;4.57;3.03;;;;;;;19.54;100.00;101283.41;5303856;28;20102;-68
2023/09/28 02:04:04;;;;;;;4.27;2.87;;;;;;;19.52;100.00;101293.31;5300467;28;20085;-68
2023/09/28 02:06:35;;;;;;;6.83;3.07;;;;;;;19.52;100.00;101295.97;5316689;28;20026;-68
2023/09/28 02:09:07;;;;;;;5.50;3.20;;;;;;;19.61;100.00;101304.09;5288179;28;20051;-68
2023/09/28 02:11:43;;;;;;;4.90;3.60;;;;;;;19.55;100.00;101289.53;5277626;28;20417;-68
2023/09/28 02:14:14;;;;;;;6.47;2.90;;;;;;;19.41;100.00;101299.59;5309494;28;20072;-67
2023/09/28 02:16:46;;;;;;;4.60;3.20;;;;;;;19.14;100.00;101305.59;5309530;28;20043;-67
2023/09/28 02:19:17;;;;;;;9.40;4.07;;;;;;;19.36;100.00;101311.66;5293775;28;20047;-68
2023/09/28 02:21:51;;;;;;;6.00;3.20;;;;;;;19.10;100.00;101292.56;5301430;28;20038;-67
2023/09/28 02:24:22;;;;;;;4.60;3.22;;;;;;;19.05;100.00;101296.59;5313665;28;20032;-68
2023/09/28 02:26:55;;;;;;;4.60;3.20;;;;;;;19.09;100.00;101290.88;5297851;28;20016;-67
2023/09/28 02:29:26;;;;;;;6.17;3.20;;;;;;;19.19;100.00;101306.88;5277656;28;20032;-67
2023/09/28 02:31:57;;;;;;;4.47;3.10;;;;;;;19.24;100.00;101303.78;5297974;28;20027;-67
2023/09/28 02:34:29;;;;;;;4.07;2.90;;;;;;;19.19;100.00;101306.88;5305060;28;20051;-67
2023/09/28 02:37:01;;;;;;;6.70;3.50;;;;;;;18.98;100.00;101304.28;5308590;28;20489;-67
2023/09/28 02:39:38;;;;;;;4.47;2.97;;;;;;;18.94;100.00;101308.16;5295153;28;20028;-68
2023/09/28 02:42:09;;;;;;;6.57;3.70;;;;;;;18.82;100.00;101318.91;5291867;28;20051;-67
2023/09/28 02:44:40;;;;;;;6.17;3.30;;;;;;;19.11;100.00;101312.03;5286159;28;20682;-67
2023/09/28 02:47:12;;;;;;;6.20;3.70;;;;;;;18.91;100.00;101304.00;5285258;28;20124;-67
2023/09/28 02:49:43;;;;;;;4.40;3.03;;;;;;;18.86;100.00;101304.41;5275839;28;20020;-67
2023/09/28 02:52:16;;;;;;;7.10;3.30;;;;;;;18.94;100.00;101319.63;5294938;28;20051;-68
2023/09/28 02:54:48;;;;;;;5.67;3.10;;;;;;;18.85;100.00;101318.63;5287355;28;20031;-69
2023/09/28 02:57:19;;;;;;;5.70;3.80;;;;;;;19.01;100.00;101319.94;5295333;28;20403;-67
2023/09/28 02:59:51;;;;;;;4.67;3.13;;;;;;;18.92;100.00;101304.84;5293341;28;20031;-67
2023/09/28 03:02:22;;;;;;;8.03;3.40;;;;;;;18.84;100.00;101318.78;5293321;28;20398;-66
2023/09/28 03:04:54;;;;;;;5.13;3.43;;;;;;;18.56;100.00;101311.41;5290883;28;20455;-67
2023/09/28 03:07:25;;;;;;;5.83;3.10;;;;;;;18.68;100.00;101328.06;5288023;28;20127;-68
2023/09/28 03:09:56;;;;;;;6.40;3.17;;;;;;;18.56;100.00;101311.41;5311485;28;20020;-67
2023/09/28 03:12:28;;;;;;;4.77;3.33;;;;;;;18.40;100.00;101297.81;5291845;28;20378;-67
2023/09/28 03:14:59;;;;;;;5.03;3.63;;;;;;;18.56;100.00;101324.69;5293244;28;20386;-67
2023/09/28 03:17:30;;;;;;;5.63;3.50;;;;;;;18.79;100.00;101337.75;5300608;28;20046;-67
2023/09/28 03:20:15;;;;;;;6.90;3.40;;;;;;;18.66;100.00;101335.31;5301882;28;20035;-67
2023/09/28 03:22:49;;;;;;;5.38;3.35;;;;;;;18.78;100.00;101336.06;5297791;28;20032;-67
2023/09/28 03:25:23;;;;;;;6.35;3.83;;;;;;;18.76;100.00;101332.72;5313786;28;20381;-68
2023/09/28 03:27:55;;;;;;;;;;;;;;;19.28;100.00;101346.84;5316340;28;20031;-67
2023/09/28 03:30:26;;;;;;;6.47;3.50;;;;;;;18.81;100.00;101342.94;5299726;28;19916;-67
2023/09/28 03:32:59;;;;;;;8.37;4.47;;;;;;;18.59;100.00;101345.63;5299808;28;20045;-68
2023/09/28 03:35:30;;;;;;;7.83;3.50;;;;;;;18.73;100.00;101343.59;5295270;28;20081;-67
2023/09/28 03:38:02;;;;;;;4.97;3.10;;;;;;;18.73;100.00;101351.53;5289302;28;20035;-67
2023/09/28 03:40:33;;;;;;;5.73;3.23;;;;;;;18.61;100.00;101351.66;5291937;28;20676;-67
2023/09/28 03:43:05;;;;;;;11.23;4.03;;;;;;;18.57;100.00;101352.88;5288163;28;20016;-67
2023/09/28 03:45:36;;;;;;;4.93;3.83;;;;;;;18.63;100.00;101367.44;5274801;28;20020;-67
2023/09/28 03:48:07;;;;;;;10.07;5.47;;;;;;;18.34;100.00;101382.22;5285379;28;20024;-67
2023/09/28 03:50:39;;;;;;;7.13;4.10;;;;;;;18.68;100.00;101377.63;5284562;28;20102;-68
2023/09/28 03:53:10;;;;;;;8.47;3.60;;;;;;;18.52;100.00;101380.78;5309223;28;20066;-67
2023/09/28 03:55:42;;;;;;;7.87;3.57;;;;;;;18.30;100.00;101375.50;5312572;28;20605;-67
2023/09/28 03:58:14;;;;;;;6.70;4.03;;;;;;;18.51;100.00;101371.97;5298128;28;20052;-67
2023/09/28 04:00:45;;;;;;;9.67;4.23;;;;;;;18.55;100.00;101373.41;5286993;28;20039;-67
2023/09/28 04:03:16;;;;;;;5.83;3.90;;;;;;;18.53;100.00;101375.34;5279903;28;20141;-67
2023/09/28 04:05:48;;;;;;;7.27;3.83;;;;;;;18.57;100.00;101376.75;5299764;28;20028;-68
2023/09/28 04:08:19;;;;;;;9.70;4.37;;;;;;;18.57;100.00;101366.13;5301780;28;20077;-68
2023/09/28 04:10:50;;;;;;;11.63;5.23;;;;;;;18.54;100.00;101386.78;5297196;28;20074;-68
2023/09/28 04:13:22;;;;;;;5.97;4.30;;;;;;;18.48;100.00;101385.50;5298547;28;20138;-67
2023/09/28 04:15:53;;;;;;;6.83;3.80;;;;;;;18.46;100.00;101384.78;5302328;28;20035;-67
2023/09/28 04:18:24;;;;;;;5.70;3.93;;;;;;;18.46;100.00;101380.34;5297162;28;20053;-67
2023/09/28 04:20:56;;;;;;;5.70;3.70;;;;;;;18.14;100.00;101382.09;5296647;28;20032;-67
2023/09/28 04:23:27;;;;;;;4.90;4.00;;;;;;;18.14;100.00;101384.75;5297484;28;20667;-67
2023/09/28 04:25:59;;;;;;;7.27;4.23;;;;;;;18.25;100.00;101377.69;5287510;28;20035;-68
2023/09/28 04:28:30;;;;;;;5.83;3.87;;;;;;;18.26;100.00;101385.50;5282519;28;20076;-67
2023/09/28 04:31:01;;;;;;;6.80;3.93;;;;;;;18.22;100.00;101383.25;5308576;28;20062;-67
2023/09/28 04:33:33;;;;;;;7.93;4.10;;;;;;;18.15;100.00;101382.94;5297474;28;20659;-67
2023/09/28 04:36:05;;;;;;;8.37;3.97;;;;;;;18.09;100.00;101388.72;5297038;28;20416;-67
2023/09/28 04:38:37;;;;;;;5.47;3.37;;;;;;;18.17;100.00;101393.41;5311138;28;20020;-67
2023/09/28 04:41:08;;;;;;;6.13;4.10;;;;;;;18.14;100.00;101392.69;5297249;28;20115;-67
2023/09/28 04:43:40;;;;;;;5.37;3.67;;;;;;;18.20;100.00;101393.16;5297064;28;20052;-67
2023/09/28 04:46:12;;;;;;;6.40;3.80;;;;;;;18.01;100.00;101399.97;5287978;28;20035;-67
2023/09/28 04:48:43;;;;;;;12.77;4.73;;;;;;;18.07;100.00;101411.84;5290183;28;20032;-67
2023/09/28 04:51:14;;;;;;;5.23;4.13;;;;;;;18.01;100.00;101411.38;5289628;28;20029;-67
2023/09/28 04:53:46;;;;;;;7.40;4.30;;;;;;;17.90;100.00;101408.78;5272651;28;20119;-67
2023/09/28 04:56:17;;;;;;;6.07;4.40;;;;;;;17.71;100.00;101370.56;5296581;28;20095;-69
2023/09/28 04:58:49;;;;;;;9.10;4.57;;;;;;;18.00;100.00;101406.22;5278837;28;20152;-68
2023/09/28 05:01:21;;;;;;;8.10;4.77;;;;;;;18.01;100.00;101418.50;5278221;28;20639;-67
2023/09/28 05:03:53;;;;;;;9.03;4.87;;;;;;;17.98;100.00;101429.34;5264480;28;20032;-67
2023/09/28 05:06:24;;;;;;;5.03;3.90;;;;;;;17.93;100.00;101435.03;5296425;28;20385;-67
2023/09/28 05:08:56;;;;;;;11.50;5.03;;;;;;;17.85;100.00;101448.06;5295741;28;20029;-67
2023/09/28 05:11:27;;;;;;;7.83;3.90;;;;;;;17.92;100.00;101443.09;5296692;28;20465;-67
2023/09/28 05:13:59;;;;;;;7.87;4.13;;;;;;;17.75;100.00;101440.03;5296719;28;20051;-67
2023/09/28 05:16:30;;;;;;;10.83;4.57;;;;;;;17.78;100.00;101445.91;5295945;28;20091;-67
2023/09/28 05:19:02;;;;;;;6.60;4.27;;;;;;;17.78;100.00;101445.09;5286641;28;20031;-66
2023/09/28 05:21:33;;;;;;;9.10;4.90;;;;;;;17.79;100.00;101457.34;5294924;28;20031;-67
2023/09/28 05:24:05;;;;;;;7.13;4.57;;;;;;;17.80;100.00;101451.09;5304513;28;20053;-66
2023/09/28 05:26:37;;;;;;;7.87;3.53;;;;;;;17.72;100.00;101451.72;5317360;28;20122;-67
2023/09/28 05:29:09;;;;;;;8.33;3.83;;;;;;;17.70;100.00;101453.63;5300496;28;20036;-67
2023/09/28 05:31:41;;;;;;;8.20;4.07;;;;;;;17.63;100.00;101474.50;5291621;28;20028;-67
2023/09/28 05:34:13;;;;;;;8.00;4.60;;;;;;;17.71;100.00;101475.69;5295221;28;20028;-66
2023/09/28 05:36:45;;;;;;;6.57;4.07;;;;;;;17.73;100.00;101474.56;5277992;28;20032;-67
2023/09/28 05:39:18;;;;;;;8.37;4.43;;;;;;;17.74;100.00;101480.72;5289700;28;20360;-67
2023/09/28 05:41:49;;;;;;;11.00;4.33;;;;;;;17.61;100.00;101479.06;5295546;28;20546;-67
2023/09/28 05:44:21;;;;;;;13.07;5.53;;;;;;;17.67;100.00;101475.09;5295755;28;20056;-67
2023/09/28 05:46:53;;;;;;;6.50;3.63;;;;;;;17.61;100.00;101483.53;5295834;28;20043;-67
2023/09/28 05:49:24;;;;;;;6.63;3.27;;;;;;;17.61;100.00;101488.84;5293904;28;20390;-66
2023/09/28 05:51:56;;;;;;;10.83;4.77;;;;;;;17.49;100.00;101488.00;5293222;28;20036;-67
2023/09/28 05:54:28;;;;;;;10.57;3.97;;;;;;;17.46;100.00;101489.06;5298240;28;20020;-67
2023/09/28 05:56:59;;;;;;;8.77;3.90;;;;;;;17.53;100.00;101490.28;5283867;28;20051;-67
2023/09/28 05:59:30;;;;;;;12.73;3.90;;;;;;;17.57;100.00;101505.91;5279313;28;20070;-68
2023/09/28 06:02:02;;;;;;;12.37;4.27;;;;;;;17.56;100.00;101513.00;5292905;28;20106;-67
2023/09/28 06:04:33;;;;;;;13.17;4.33;;;;;;;17.59;100.00;101510.16;5296213;28;20020;-67
2023/09/28 06:07:04;;;;;;;12.77;3.90;;;;;;;17.57;100.00;101512.06;5304523;28;20774;-68
2023/09/28 06:09:36;;;;;;;11.53;5.03;;;;;;;17.55;100.00;101521.94;5307665;28;20028;-67
2023/09/28 06:12:08;;;;;;;12.70;4.60;;;;;;;17.52;100.00;101498.34;5277402;28;20024;-67
2023/09/28 06:14:40;;;;;;;10.33;4.03;;;;;;;17.33;100.00;101494.50;5285543;28;20042;-67
2023/09/28 06:17:11;;;;;;;9.87;3.60;;;;;;;17.51;100.00;101507.25;5301835;28;20016;-67
2023/09/28 06:19:42;;;;;;;9.50;4.23;;;;;;;17.31;100.00;101512.31;5296353;28;20076;-67
2023/09/28 06:22:14;;;;;;;13.17;4.20;;;;;;;17.49;100.00;101507.38;5293864;28;20032;-67
2023/09/28 06:24:46;;;;;;;13.90;4.20;;;;;;;17.48;100.00;101518.09;5300576;28;20024;-68
2023/09/28 06:27:17;;;;;;;14.53;4.37;;;;;;;17.47;100.00;101532.28;5263398;28;20020;-68
2023/09/28 06:29:52;;;;;;;14.73;4.50;;;;;;;17.46;100.00;101520.00;5296084;28;20024;-68
2023/09/28 06:32:25;;;;;;;9.63;3.73;;;;;;;17.56;100.00;101536.84;5296371;28;20114;-67
2023/09/28 06:34:57;;;;;;;10.50;3.70;;;;;;;17.51;100.00;101544.31;5292656;28;20164;-68
2023/09/28 06:37:29;;;;;;;13.83;4.27;;;;;;;17.46;100.00;101535.88;5301372;28;20024;-67
2023/09/28 06:40:01;;;;;;;13.10;4.60;;;;;;;17.58;100.00;101542.88;5304682;28;20123;-67
2023/09/28 06:42:32;;;;;;;18.53;6.77;;;;;;;17.61;100.00;101533.84;5311042;28;20032;-67
2023/09/28 06:45:04;;;;;;;15.33;4.47;;;;;;;17.52;100.00;101543.38;5315228;28;20502;-67
2023/09/28 06:47:35;;;;;;;13.40;4.37;;;;;;;17.70;100.00;101537.59;5247312;28;20031;-67
2023/09/28 06:50:09;;;;;;;14.17;4.40;;;;;;;17.65;100.00;101540.56;5244384;28;20028;-66
2023/09/28 06:52:40;;;;;;;16.00;3.92;;;;;;;17.70;100.00;101553.47;5287436;28;20241;-67
2023/09/28 06:55:13;;;;;;;16.67;5.20;;;;;;;17.70;100.00;101564.91;5287395;28;20028;-67
2023/09/28 06:57:44;;;;;;;22.90;5.20;;;;;;;17.71;100.00;101571.91;5289273;28;20055;-67
2023/09/28 07:00:16;;;;;;;14.73;4.27;;;;;;;17.77;100.00;101563.44;5289760;28;20028;-67
2023/09/28 07:02:48;;;;;;;19.13;5.43;;;;;;;17.78;100.00;101561.66;5288502;28;20063;-67
2023/09/28 07:05:19;;;;;;;19.23;4.90;;;;;;;17.84;100.00;101570.94;5266282;28;20120;-66
2023/09/28 07:07:50;;;;;;;14.10;4.50;;;;;;;17.86;100.00;101580.41;5287938;28;20806;-67
2023/09/28 07:10:22;;;;;;;12.70;3.93;;;;;;;18.03;100.00;101583.53;5289206;28;20062;-67
2023/09/28 07:12:53;;;;;;;15.03;4.00;;;;;;;18.16;100.00;101578.13;5286391;28;20791;-67
2023/09/28 07:15:24;;;;;;;14.17;5.37;;;;;;;18.24;100.00;101566.88;5288181;28;20067;-66
2023/09/28 07:17:56;;;;;;;21.37;5.23;;;;;;;18.34;100.00;101566.97;5284061;28;20085;-67
2023/09/28 07:20:27;;;;;;;17.97;5.90;;;;;;;18.41;100.00;101572.63;5285974;28;20501;-68
2023/09/28 07:22:58;;;;;;;22.03;6.43;;;;;;;18.47;100.00;101567.66;5286910;28;20026;-68
2023/09/28 07:25:30;;;;;;;18.80;5.13;;;;;;;18.50;100.00;101555.97;5285621;28;20025;-68
2023/09/28 07:28:01;;;;;;;16.73;4.87;;;;;;;18.51;100.00;101557.63;5266988;28;20028;-68
2023/09/28 07:30:33;;;;;;;16.07;4.23;;;;;;;18.44;100.00;101553.81;5294094;28;20498;-68
2023/09/28 07:33:04;;;;;;;21.27;5.03;;;;;;;18.49;100.00;101578.13;5304062;28;20386;-68
2023/09/28 07:35:36;;;;;;;16.60;4.70;;;;;;;18.41;100.00;101588.53;5296436;28;20035;-67
2023/09/28 07:38:07;;;;;;;19.60;5.63;;;;;;;18.41;100.00;101605.28;5297278;28;20073;-68
2023/09/28 07:40:38;;;;;;;18.67;5.73;;;;;;;18.55;100.00;101587.41;5301164;28;20035;-68
2023/09/28 07:43:09;;;;;;;18.07;5.07;;;;;;;18.43;100.00;101591.91;5301498;28;20076;-68
2023/09/28 07:45:41;;;;;;;17.53;5.60;;;;;;;18.74;100.00;101607.94;5278813;28;20012;-67
2023/09/28 07:48:12;;;;;;;22.40;5.70;;;;;;;18.84;100.00;101608.84;5295561;28;20020;-68
2023/09/28 07:50:43;;;;;;;24.17;6.63;;;;;;;18.93;100.00;101606.41;5285347;28;20031;-68
2023/09/28 07:53:15;;;;;;;18.27;4.70;;;;;;;19.03;100.00;101606.47;5296801;28;20107;-68
2023/09/28 07:55:47;;;;;;;19.43;5.57;;;;;;;19.12;100.00;101607.53;5309175;28;20393;-67
2023/09/28 07:58:18;;;;;;;19.43;4.63;;;;;;;19.27;100.00;101606.22;5305695;28;20067;-68
2023/09/28 08:00:49;;;;;;;19.00;5.07;;;;;;;19.42;100.00;101613.88;5302110;28;20085;-69
2023/09/28 08:03:21;;;;;;;23.80;5.33;;;;;;;19.55;100.00;101608.31;5301345;28;20032;-68
2023/09/28 08:05:54;;;;;;;23.93;5.60;;;;;;;19.87;100.00;101622.44;5294679;28;20159;-68
2023/09/28 08:08:27;;;;;;;23.80;6.37;;;;;;;20.16;100.00;101627.06;5282268;28;20027;-67
2023/09/28 08:11:00;;;;;;;21.73;5.90;;;;;;;20.44;100.00;101616.56;5295119;28;20520;-67
2023/09/28 08:13:32;;;;;;;19.97;4.67;;;;;;;20.90;100.00;101624.00;5293854;28;20039;-68
2023/09/28 08:16:04;;;;;;;15.97;4.97;;;;;;;21.38;100.00;101626.75;5296326;28;20458;-67
2023/09/28 08:18:35;;;;;;;23.43;6.03;;;;;;;21.70;100.00;101627.31;5295491;28;20024;-67
2023/09/28 08:21:07;;;;;;;23.60;5.23;;;;;;;22.33;100.00;101630.25;5295383;28;20027;-66
2023/09/28 08:23:38;;;;;;;18.35;5.13;;;;;;;23.08;100.00;101623.75;5298123;28;20051;-69
2023/09/28 08:26:09;;;;;;;24.15;5.75;;;;;;;23.43;100.00;101626.50;5286477;28;20020;-69
2023/09/28 08:28:41;;;;;;;15.63;5.20;;;;;;;23.83;100.00;101626.00;5287472;28;20039;-69
2023/09/28 08:31:12;;;;;;;21.60;4.93;;;;;;;23.97;98.34;101623.69;5292744;28;20494;-69
2023/09/28 08:33:43;;;;;;;19.13;5.15;;;;;;;24.61;87.15;101633.06;5278066;28;20026;-69
2023/09/28 08:36:15;;;;;;;21.25;5.63;;;;;;;24.78;81.00;101637.41;5300273;28;20063;-69
2023/09/28 08:38:48;;;;;;;24.23;5.72;;;;;;;24.52;79.88;101635.72;5287646;28;20047;-68
2023/09/28 08:41:43;;;;;;;14.20;4.63;;;;;;;24.76;84.89;101641.25;5293554;28;20024;-71
2023/09/28 08:44:15;;;;;;;19.67;4.90;;;;;;;23.69;83.38;101655.03;5285087;28;20040;-69
2023/09/28 08:46:48;;;;;;;15.85;4.55;;;;;;;23.42;87.72;101662.22;5295588;28;20036;-69
2023/09/28 08:49:21;;;;;;;18.73;4.43;;;;;;;23.06;88.52;101665.81;5290959;28;20039;-70
2023/09/28 08:51:55;;;;;;;23.02;5.13;;;;;;;22.86;91.10;101662.47;5272923;28;20466;-69
2023/09/28 08:54:28;;;;;;;17.20;4.85;;;;;;;23.14;85.63;101670.38;5279958;28;20735;-70
2023/09/28 08:56:59;;;;;;;22.40;5.28;;;;;;;23.16;82.14;101663.03;5281390;28;20038;-70
2023/09/28 08:59:31;;;;;;;15.80;4.72;;;;;;;22.94;83.58;101667.88;5302634;28;20024;-70
2023/09/28 09:02:03;;;;;;;21.02;5.53;;;;;;;22.67;87.49;101661.63;5299490;28;20557;-70
2023/09/28 09:04:34;;;;;;;22.63;6.93;;;;;;;22.52;86.63;101674.63;5287656;28;20477;-70
2023/09/28 09:07:06;;;;;;;25.15;5.70;;;;;;;22.39;88.51;101669.69;5275745;28;20019;-69
2023/09/28 09:09:40;;;;;;;23.75;6.18;;;;;;;22.83;87.87;101670.81;5286080;28;20103;-69
2023/09/28 09:12:11;;;;;;;;;;;;;;;24.26;79.60;101673.34;5283399;28;20028;-68
2023/09/28 09:14:43;;;;;;;16.83;4.53;;;;;;;23.21;84.38;101675.94;5293366;28;19927;-68
2023/09/28 09:17:14;;;;;;;18.60;5.60;;;;;;;24.60;73.50;101674.22;5297530;28;20027;-68
2023/09/28 09:19:45;;;;;;;18.48;5.65;;;;;;;25.45;65.09;101658.78;5300389;28;20049;-68
2023/09/28 09:22:25;;;;;;;18.38;5.13;;;;;;;26.06;60.02;101672.69;5289603;28;20111;-68
2023/09/28 09:25:00;;;;;;;19.63;5.10;;;;;;;26.42;53.24;101682.06;5285286;28;20039;-68
2023/09/28 09:27:32;;;;;;;19.27;5.55;;;;;;;26.69;50.08;101671.78;5309138;28;20107;-68
2023/09/28 09:30:07;;;;;;;17.77;5.00;;;;;;;27.23;48.72;101678.06;5296469;28;20209;-69
2023/09/28 09:32:42;;;;;;;17.45;4.80;;;;;;;27.57;46.61;101677.72;5281204;28;20023;-67
2023/09/28 09:35:13;;;;;;;23.60;4.80;;;;;;;27.41;47.77;101688.47;5283610;28;20592;-68
2023/09/28 09:37:53;;;;;;;18.02;4.85;;;;;;;27.71;48.35;101681.44;5288171;28;20081;-68
2023/09/28 09:40:25;;;;;;;21.05;5.20;;;;;;;27.47;47.56;101672.63;5289259;28;20024;-68
2023/09/28 09:43:07;;;;;;;17.98;5.78;;;;;;;27.62;47.38;101673.44;5294039;28;20092;-67
2023/09/28 09:45:38;;;;;;;14.43;4.40;;;;;;;27.03;46.98;101678.59;5309219;28;20031;-68
2023/09/28 09:48:11;;;;;;;18.30;5.25;;;;;;;27.12;46.54;101681.22;5301066;28;20036;-68
2023/09/28 09:50:43;;;;;;;16.92;5.10;;;;;;;27.49;45.26;101689.41;5298560;28;20456;-68
2023/09/28 09:53:16;;;;;;;19.95;4.65;;;;;;;28.32;45.00;101696.47;5292133;28;20434;-68
2023/09/28 09:55:49;;;;;;;14.57;4.88;;;;;;;29.13;43.73;101700.97;5303702;28;20474;-69
2023/09/28 09:58:22;;;;;;;16.75;4.75;;;;;;;29.04;41.84;101698.44;5312868;28;20176;-69
2023/09/28 10:00:57;;;;;;;16.10;4.43;;;;;;;28.68;42.19;101700.16;5297347;28;20473;-68
2023/09/28 10:03:29;;;;;;;13.75;4.55;;;;;;;28.46;42.87;101697.47;5312167;28;20058;-68
2023/09/28 10:06:01;;;;;;;15.85;5.30;;;;;;;28.58;42.31;101689.72;5310960;28;20182;-69
2023/09/28 10:08:33;;;;;;;18.50;5.10;;;;;;;28.42;42.94;101693.50;5303387;28;20578;-68
2023/09/28 10:11:05;;;;;;;18.33;5.82;;;;;;;28.34;41.69;101693.59;5295822;28;20372;-68
2023/09/28 10:13:36;;;;;;;16.63;5.03;;;;;;;28.79;42.45;101682.66;5288591;28;20032;-69
2023/09/28 10:16:15;;;;;;;16.02;4.25;;;;;;;29.01;41.55;101676.44;5309498;28;20031;-68
2023/09/28 10:18:49;;;;;;;17.77;4.97;;;;;;;28.71;41.77;101670.13;5284379;28;20024;-68
2023/09/28 10:21:20;;;;;;;17.10;4.70;;;;;;;28.05;42.58;101665.72;5291551;28;20054;-69
2023/09/28 10:23:56;;;;;;;11.15;4.25;;;;;;;28.01;42.55;101646.41;5298946;28;20362;-68
2023/09/28 10:26:29;;;;;;;13.10;4.55;;;;;;;27.92;43.78;101642.16;5314573;28;20023;-69
2023/09/28 10:29:05;;;;;;;13.13;4.03;;;;;;;27.70;43.64;101653.69;5295902;28;20047;-69
2023/09/28 10:31:38;;;;;;;16.15;4.43;;;;;;;27.25;43.03;101662.59;5295313;28;20028;-69
2023/09/28 10:34:19;;;;;;;12.38;4.28;;;;;;;27.56;44.12;101657.22;5283047;28;20028;-68
2023/09/28 10:37:06;;;;;;;16.92;4.85;;;;;;;27.50;44.95;101665.03;5306331;28;20028;-69
2023/09/28 10:39:38;;;;;;;14.07;4.63;;;;;;;27.01;45.36;101669.84;5306381;28;20035;-68
2023/09/28 10:42:15;;;;;;;13.23;3.88;;;;;;;27.05;45.64;101665.78;5304020;28;20028;-68
2023/09/28 10:44:49;;;;;;;19.38;5.03;;;;;;;26.46;46.44;101678.03;5297769;28;20080;-68
2023/09/28 10:47:21;;;;;;;17.25;4.45;;;;;;;26.45;46.72;101668.28;5283332;28;20411;-68
2023/09/28 10:50:04;;;;;;;14.70;4.72;;;;;;;26.78;48.22;101670.72;5291383;28;20113;-68
2023/09/28 10:52:35;;;;;;;14.18;4.38;;;;;;;26.38;49.37;101678.06;5294486;28;20046;-68
2023/09/28 10:55:08;;;;;;;18.73;5.60;;;;;;;25.89;49.25;101672.75;5292046;28;20115;-68
2023/09/28 10:57:39;;;;;;;16.92;4.07;;;;;;;26.01;47.98;101675.06;5292837;28;20115;-68
2023/09/28 11:00:12;;;;;;;16.95;5.18;;;;;;;25.74;49.38;101670.78;5303525;28;20110;-68
2023/09/28 11:02:44;;;;;;;14.80;4.20;;;;;;;25.95;49.43;101681.94;5310996;28;20030;-68
2023/09/28 11:05:18;;;;;;;14.20;4.40;;;;;;;25.87;50.96;101688.16;5301971;28;20020;-69
2023/09/28 11:07:51;;;;;;;21.83;4.85;;;;;;;25.89;51.75;101688.00;5309450;28;20031;-70
2023/09/28 11:10:25;;;;;;;15.45;4.53;;;;;;;25.75;50.76;101693.09;5299866;28;20051;-68
2023/09/28 11:12:57;;;;;;;14.88;4.53;;;;;;;25.64;51.35;101686.25;5288389;28;20390;-68
2023/09/28 11:15:29;;;;;;;18.10;4.55;;;;;;;25.63;51.56;101692.59;5291482;28;20025;-68
2023/09/28 11:18:01;;;;;;;18.65;4.88;;;;;;;25.68;50.47;101694.78;5291799;28;20530;-68
2023/09/28 11:20:33;;;;;;;15.30;4.82;;;;;;;25.69;51.00;101689.25;5297301;28;20019;-68
2023/09/28 11:23:04;;;;;;;14.45;4.75;;;;;;;25.45;52.03;101684.78;5284880;28;20668;-68
2023/09/28 11:25:38;;;;;;;16.23;4.15;;;;;;;25.50;51.96;101685.91;5282335;28;20039;-68
2023/09/28 11:28:10;;;;;;;18.88;5.18;;;;;;;24.98;56.55;101684.47;5284871;28;20027;-68
2023/09/28 11:30:42;;;;;;;14.52;3.95;;;;;;;25.55;55.22;101674.69;5317959;28;20030;-68
2023/09/28 11:33:13;;;;;;;11.75;3.90;;;;;;;25.27;51.09;101683.13;5315477;28;20366;-69
2023/09/28 11:35:46;;;;;;;16.55;4.72;;;;;;;25.35;51.27;101683.09;5289005;28;20019;-68
2023/09/28 11:38:18;;;;;;;12.55;3.78;;;;;;;24.60;53.79;101691.13;5299960;28;20059;-69
2023/09/28 11:40:52;;;;;;;17.70;5.15;;;;;;;25.10;53.79;101685.81;5297938;28;20119;-68